Time,TemperatureF,DewpointF,PressureIn,WindDirection,WindDirectionDegrees,WindSpeedMPH,WindSpeedGustMPH,Humidity,HourlyPrecipIn,Conditions,Clouds,dailyrainin,SoftwareType,DateUTC
2013-07-15 00:01:00,80.4,74.7,30.28,ESE,111,4.4,11.3,83,0.00, ,,-99.99,VWS V12.07,2013-07-15 04:01:00,
2013-07-15 00:02:00,80.4,74.7,30.28,East,84,5.9,11.3,83,0.00, ,,-99.99,VWS V12.07,2013-07-15 04:02:00,
2013-07-15 00:04:00,80.7,75.1,30.28,East,95,6.5,11.3,83,0.00, ,,-99.99,VWS V12.07,2013-07-15 04:04:00,
2013-07-15 00:05:00,80.4,74.6,30.28,East,80,9.4,11.3,82,0.00, ,,-99.99,VWS V12.07,2013-07-15 04:05:00,
2013-07-15 00:06:00,80.4,74.6,30.28,ENE,76,10.1,11.3,83,0.00, ,,-99.99,VWS V12.07,2013-07-15 04:06:00,
2013-07-15 00:11:00,80.4,74.6,30.28,East,97,8.2,11.3,82,0.00, ,,-99.99,VWS V12.07,2013-07-15 04:11:00,
2013-07-15 00:16:00,80.4,74.7,30.28,ENE,73,4.8,8.9,83,0.00, ,,-99.99,VWS V12.07,2013-07-15 04:16:00,
2013-07-15 00:21:00,80.2,74.8,30.28,ESE,107,14.0,14.6,84,0.00, ,,-99.99,VWS V12.07,2013-07-15 04:21:00,
2013-07-15 00:26:00,80.1,74.7,30.28,East,88,8.6,14.6,84,0.00, ,,-99.99,VWS V12.07,2013-07-15 04:26:00,
2013-07-15 00:31:00,80.2,74.6,30.28,ESE,111,11.5,14.6,83,0.00, ,,-99.99,VWS V12.07,2013-07-15 04:31:00,
2013-07-15 00:36:00,80.1,74.5,30.28,East,92,9.5,12.0,83,0.00, ,,-99.99,VWS V12.07,2013-07-15 04:36:00,
2013-07-15 00:41:00,80.5,74.8,30.28,East,84,7.5,12.0,83,0.00, ,,-99.99,VWS V12.07,2013-07-15 04:41:00,
2013-07-15 00:46:00,80.4,74.7,30.28,East,101,5.2,12.0,83,0.00, ,,-99.99,VWS V12.07,2013-07-15 04:46:00,
2013-07-15 00:51:00,80.4,74.9,30.28,East,91,3.2,12.0,83,0.00, ,,-99.99,VWS V12.07,2013-07-15 04:51:00,
2013-07-15 00:56:00,79.9,74.5,30.28,SE,130,5.5,9.1,84,0.00, ,,-99.99,VWS V12.07,2013-07-15 04:56:00,
2013-07-15 01:01:00,80.1,74.7,30.28,ESE,115,5.2,9.9,84,0.00, ,,-99.99,VWS V12.07,2013-07-15 05:01:00,
2013-07-15 01:06:00,80.2,74.8,30.28,ESE,116,7.1,9.9,84,0.00, ,,-99.99,VWS V12.07,2013-07-15 05:06:00,
2013-07-15 01:11:00,80.1,74.7,30.28,East,88,8.0,9.9,84,0.00, ,,-99.99,VWS V12.07,2013-07-15 05:11:00,
2013-07-15 01:16:00,80.2,75.0,30.28,ENE,62,0.0,0.0,84,0.00, ,,-99.99,VWS V12.07,2013-07-15 05:16:00,
2013-07-15 01:21:00,79.9,74.8,30.28,East,95,9.8,13.2,84,0.00, ,,-99.99,VWS V12.07,2013-07-15 05:21:00,
2013-07-15 01:26:00,80.1,74.8,30.28,ESE,111,7.1,13.2,84,0.00, ,,-99.99,VWS V12.07,2013-07-15 05:26:00,
2013-07-15 01:31:00,80.4,75.1,30.28,East,98,7.1,13.2,84,0.00, ,,-99.99,VWS V12.07,2013-07-15 05:31:00,
2013-07-15 01:36:00,80.2,74.9,30.28,ESE,104,7.6,12.0,84,0.00, ,,-99.99,VWS V12.07,2013-07-15 05:36:00,
2013-07-15 01:41:00,80.1,75.0,30.28,SE,128,0.0,12.0,84,0.00, ,,-99.99,VWS V12.07,2013-07-15 05:41:00,
2013-07-15 01:46:00,79.9,74.8,30.28,East,90,5.7,12.0,84,0.00, ,,-99.99,VWS V12.07,2013-07-15 05:46:00,
2013-07-15 01:51:00,80.3,75.2,30.28,ESE,109,6.0,12.0,84,0.00, ,,-99.99,VWS V12.07,2013-07-15 05:51:00,
2013-07-15 01:56:00,80.4,75.1,30.28,ENE,70,6.3,6.4,84,0.00, ,,-99.99,VWS V12.07,2013-07-15 05:56:00,
2013-07-15 02:01:00,80.3,74.8,30.28,ENE,73,5.3,9.9,83,0.00, ,,-99.99,VWS V12.07,2013-07-15 06:01:00,
2013-07-15 02:06:00,80.3,74.5,30.28,East,91,2.9,9.9,83,0.00, ,,-99.99,VWS V12.07,2013-07-15 06:06:00,
2013-07-15 02:11:00,80.3,74.8,30.28,ENE,64,0.0,10.0,83,0.00, ,,-99.99,VWS V12.07,2013-07-15 06:11:00,
2013-07-15 02:16:00,80.1,74.9,30.28,East,100,6.7,8.6,84,0.00, ,,-99.99,VWS V12.07,2013-07-15 06:16:00,
2013-07-15 02:21:00,80.0,74.9,30.28,East,90,6.0,9.0,84,0.00, ,,-99.99,VWS V12.07,2013-07-15 06:21:00,
2013-07-15 02:26:00,79.8,74.8,30.28,ENE,62,0.0,9.1,85,0.00, ,,-99.99,VWS V12.07,2013-07-15 06:26:00,
2013-07-15 02:31:00,80.2,75.1,30.28,East,88,5.2,9.7,84,0.00, ,,-99.99,VWS V12.07,2013-07-15 06:31:00,
2013-07-15 02:36:00,80.3,74.9,30.27,East,91,5.0,7.3,84,0.00, ,,-99.99,VWS V12.07,2013-07-15 06:36:00,
2013-07-15 02:41:00,80.3,74.9,30.27,East,84,5.8,9.5,84,0.00, ,,-99.99,VWS V12.07,2013-07-15 06:41:00,
2013-07-15 02:46:00,80.1,74.4,30.27,East,92,8.7,9.9,83,0.00, ,,-99.99,VWS V12.07,2013-07-15 06:46:00,
2013-07-15 02:51:00,79.9,74.4,30.27,East,81,5.2,9.9,83,0.00, ,,-99.99,VWS V12.07,2013-07-15 06:51:00,
2013-07-15 02:56:00,79.8,74.7,30.27,East,101,6.3,8.7,84,0.00, ,,-99.99,VWS V12.07,2013-07-15 06:56:00,
2013-07-15 03:01:00,79.3,74.5,30.27,East,83,7.1,9.2,85,0.00, ,,-99.99,VWS V12.07,2013-07-15 07:01:00,
2013-07-15 03:06:00,79.9,75.2,30.27,East,85,0.0,9.2,86,0.00, ,,-99.99,VWS V12.07,2013-07-15 07:06:00,
2013-07-15 03:11:00,80.1,75.2,30.27,East,91,6.3,9.3,85,0.00, ,,-99.99,VWS V12.07,2013-07-15 07:11:00,
2013-07-15 03:16:00,80.2,75.0,30.27,ESE,114,6.9,8.9,84,0.00, ,,-99.99,VWS V12.07,2013-07-15 07:16:00,
2013-07-15 03:21:00,80.1,74.8,30.27,ENE,77,9.9,9.9,84,0.00, ,,-99.99,VWS V12.07,2013-07-15 07:21:00,
2013-07-15 03:26:00,79.9,74.7,30.27,East,83,0.0,10.3,84,0.00, ,,-99.99,VWS V12.07,2013-07-15 07:26:00,
2013-07-15 03:31:00,79.8,75.1,30.27,East,90,6.6,10.3,86,0.00, ,,-99.99,VWS V12.07,2013-07-15 07:31:00,
2013-07-15 03:36:00,79.5,75.0,30.27,ESE,104,6.6,8.9,86,0.00, ,,-99.99,VWS V12.07,2013-07-15 07:36:00,
2013-07-15 03:41:00,79.8,74.9,30.27,ENE,76,7.8,9.3,85,0.00, ,,-99.99,VWS V12.07,2013-07-15 07:41:00,
2013-07-15 03:46:00,80.2,75.4,30.27,East,84,5.1,11.9,85,0.00, ,,-99.99,VWS V12.07,2013-07-15 07:46:00,
2013-07-15 03:51:00,80.4,75.6,30.27,NE,55,0.0,11.9,85,0.00, ,,-99.99,VWS V12.07,2013-07-15 07:51:00,
2013-07-15 03:56:00,79.8,75.3,30.27,NNE,19,0.0,0.0,86,0.00, ,,-99.99,VWS V12.07,2013-07-15 07:56:00,
2013-07-15 04:01:00,79.2,75.4,30.28,NNE,19,0.0,0.0,88,0.00, ,,-99.99,VWS V12.07,2013-07-15 08:01:00,
2013-07-15 04:06:00,78.4,75.4,30.28,NNE,19,0.0,0.0,90,0.00, ,,-99.99,VWS V12.07,2013-07-15 08:06:00,
2013-07-15 04:11:00,78.2,75.3,30.28,NNE,19,0.0,0.0,91,0.00, ,,-99.99,VWS V12.07,2013-07-15 08:11:00,
2013-07-15 04:16:00,78.0,75.3,30.28,NNE,19,0.0,0.0,92,0.00, ,,-99.99,VWS V12.07,2013-07-15 08:16:00,
2013-07-15 04:22:00,78.1,75.4,30.28,NNE,19,0.0,0.0,91,0.00, ,,-99.99,VWS V12.07,2013-07-15 08:22:00,
2013-07-15 04:27:00,78.0,75.5,30.28,NNE,19,0.0,0.0,92,0.00, ,,-99.99,VWS V12.07,2013-07-15 08:27:00,
2013-07-15 04:32:00,77.8,75.5,30.28,NE,55,0.0,6.8,93,0.00, ,,-99.99,VWS V12.07,2013-07-15 08:32:00,
2013-07-15 04:37:00,78.0,75.7,30.27,ENE,57,6.3,7.5,92,0.00, ,,-99.99,VWS V12.07,2013-07-15 08:37:00,
2013-07-15 04:42:00,78.1,75.3,30.27,ENE,59,6.7,9.1,91,0.00, ,,-99.99,VWS V12.07,2013-07-15 08:42:00,
2013-07-15 04:47:00,78.0,74.8,30.28,NE,53,6.8,9.1,90,0.00, ,,-99.99,VWS V12.07,2013-07-15 08:47:00,
2013-07-15 04:52:00,78.2,74.7,30.28,ENE,57,6.8,9.1,89,0.00, ,,-99.99,VWS V12.07,2013-07-15 08:52:00,
2013-07-15 04:57:00,78.0,74.9,30.28,NE,42,5.9,8.0,90,0.00, ,,-99.99,VWS V12.07,2013-07-15 08:57:00,
2013-07-15 05:02:00,78.2,75.3,30.28,ENE,71,5.3,8.0,91,0.00, ,,-99.99,VWS V12.07,2013-07-15 09:02:00,
2013-07-15 05:07:00,78.7,75.5,30.28,NE,53,6.9,9.1,90,0.00, ,,-99.99,VWS V12.07,2013-07-15 09:07:00,
2013-07-15 05:12:00,79.1,75.7,30.28,NE,56,3.5,9.1,89,0.00, ,,-99.99,VWS V12.07,2013-07-15 09:12:00,
2013-07-15 05:17:00,79.7,76.0,30.28,NE,49,3.5,7.0,89,0.00, ,,-99.99,VWS V12.07,2013-07-15 09:17:00,
2013-07-15 05:22:00,79.1,75.2,30.28,ENE,71,0.0,7.0,88,0.00, ,,-99.99,VWS V12.07,2013-07-15 09:22:00,
2013-07-15 05:27:00,78.5,75.2,30.28,ENE,71,0.0,7.0,90,0.00, ,,-99.99,VWS V12.07,2013-07-15 09:27:00,
2013-07-15 05:32:00,78.0,75.2,30.28,NE,39,0.0,7.0,91,0.00, ,,-99.99,VWS V12.07,2013-07-15 09:32:00,
2013-07-15 05:37:00,77.9,75.2,30.28,NE,39,0.0,0.0,91,0.00, ,,-99.99,VWS V12.07,2013-07-15 09:37:00,
2013-07-15 05:42:00,77.7,75.2,30.28,NE,39,0.0,0.0,92,0.00, ,,-99.99,VWS V12.07,2013-07-15 09:42:00,
2013-07-15 05:47:00,77.4,75.0,30.28,NE,39,0.0,0.0,92,0.00, ,,-99.99,VWS V12.07,2013-07-15 09:47:00,
2013-07-15 05:52:00,77.8,75.4,30.28,NE,39,0.0,0.0,92,0.00, ,,-99.99,VWS V12.07,2013-07-15 09:52:00,
2013-07-15 05:57:00,77.5,75.3,30.28,NE,39,0.0,0.0,93,0.00, ,,-99.99,VWS V12.07,2013-07-15 09:57:00,
2013-07-15 06:02:00,77.5,75.3,30.28,NE,39,0.0,0.0,93,0.00, ,,-99.99,VWS V12.07,2013-07-15 10:02:00,
2013-07-15 06:07:00,77.1,74.8,30.28,NNE,21,2.7,5.3,92,0.00, ,,-99.99,VWS V12.07,2013-07-15 10:07:00,
2013-07-15 06:12:00,77.3,75.2,30.28,NNE,28,0.0,5.3,93,0.00, ,,-99.99,VWS V12.07,2013-07-15 10:12:00,
2013-07-15 06:17:00,77.3,75.2,30.28,NNE,28,0.0,0.0,93,0.00, ,,-99.99,VWS V12.07,2013-07-15 10:17:00,
2013-07-15 06:22:00,76.9,74.8,30.28,NNE,28,0.0,0.0,93,0.00, ,,-99.99,VWS V12.07,2013-07-15 10:22:00,
2013-07-15 06:27:00,77.0,75.1,30.28,NNE,28,0.0,0.0,94,0.00, ,,-99.99,VWS V12.07,2013-07-15 10:27:00,
2013-07-15 06:32:00,77.1,75.2,30.28,NNE,28,0.0,0.0,94,0.00, ,,-99.99,VWS V12.07,2013-07-15 10:32:00,
2013-07-15 06:37:00,77.1,75.2,30.29,NNE,28,0.0,0.0,94,0.00, ,,-99.99,VWS V12.07,2013-07-15 10:37:00,
2013-07-15 06:42:00,77.4,75.3,30.29,NNE,28,0.0,0.0,93,0.00, ,,-99.99,VWS V12.07,2013-07-15 10:42:00,
2013-07-15 06:47:00,77.8,75.7,30.29,NNE,28,0.0,0.0,93,0.00, ,,-99.99,VWS V12.07,2013-07-15 10:47:00,
2013-07-15 06:52:00,77.9,75.8,30.29,NNE,28,0.0,0.0,93,0.00, ,,-99.99,VWS V12.07,2013-07-15 10:52:00,
2013-07-15 06:57:00,78.2,76.1,30.29,NNE,28,0.0,0.0,93,0.00, ,,-99.99,VWS V12.07,2013-07-15 10:57:00,
2013-07-15 07:02:00,78.0,75.7,30.29,NNE,28,0.0,0.0,93,0.00, ,,-99.99,VWS V12.07,2013-07-15 11:02:00,
2013-07-15 07:07:00,77.9,75.6,30.30,NNE,28,0.0,0.0,93,0.00, ,,-99.99,VWS V12.07,2013-07-15 11:07:00,
2013-07-15 07:12:00,77.3,75.0,30.30,NNE,28,0.0,0.0,93,0.00, ,,-99.99,VWS V12.07,2013-07-15 11:12:00,
2013-07-15 07:17:00,77.8,75.6,30.30,NNE,28,0.0,0.0,93,0.00, ,,-99.99,VWS V12.07,2013-07-15 11:17:00,
2013-07-15 07:22:00,77.5,75.3,30.30,NNE,28,0.0,0.0,93,0.00, ,,-99.99,VWS V12.07,2013-07-15 11:22:00,
2013-07-15 07:27:00,77.7,75.5,30.30,NNE,28,0.0,0.0,93,0.00, ,,-99.99,VWS V12.07,2013-07-15 11:27:00,
2013-07-15 07:32:00,77.7,75.5,30.30,NNE,28,0.0,0.0,93,0.00, ,,-99.99,VWS V12.07,2013-07-15 11:32:00,
2013-07-15 07:37:00,78.0,75.8,30.29,NE,38,0.0,0.0,93,0.00, ,,-99.99,VWS V12.07,2013-07-15 11:37:00,
2013-07-15 07:42:00,78.7,76.1,30.29,NE,38,0.0,0.0,92,0.00, ,,-99.99,VWS V12.07,2013-07-15 11:42:00,
2013-07-15 07:47:00,78.8,76.0,30.30,NE,38,0.0,0.0,91,0.00, ,,-99.99,VWS V12.07,2013-07-15 11:47:00,
2013-07-15 07:52:00,78.8,76.0,30.29,NE,38,0.0,0.0,91,0.00, ,,-99.99,VWS V12.07,2013-07-15 11:52:00,
2013-07-15 07:57:00,79.5,75.8,30.30,East,87,7.5,7.5,88,0.00, ,,-99.99,VWS V12.07,2013-07-15 11:57:00,
2013-07-15 08:02:00,80.3,75.7,30.30,ENE,76,4.8,7.9,86,0.00, ,,-99.99,VWS V12.07,2013-07-15 12:02:00,
2013-07-15 08:07:00,80.4,75.4,30.30,ENE,62,2.9,7.9,85,0.00, ,,-99.99,VWS V12.07,2013-07-15 12:07:00,
2013-07-15 08:12:00,80.8,75.3,30.30,East,92,6.1,7.9,83,0.00, ,,-99.99,VWS V12.07,2013-07-15 12:12:00,
2013-07-15 08:17:00,81.0,75.9,30.30,ENE,63,0.0,7.6,84,0.00, ,,-99.99,VWS V12.07,2013-07-15 12:17:00,
2013-07-15 08:22:00,80.5,75.1,30.30,East,81,0.0,7.6,84,0.00, ,,-99.99,VWS V12.07,2013-07-15 12:22:00,
2013-07-15 08:27:00,80.5,74.9,30.30,ENE,69,7.8,7.8,83,0.00, ,,-99.99,VWS V12.07,2013-07-15 12:27:00,
2013-07-15 08:32:00,80.4,72.7,30.30,ENE,69,7.8,11.5,78,0.00, ,,-99.99,VWS V12.07,2013-07-15 12:32:00,
2013-07-15 08:37:00,81.5,72.6,30.30,East,88,9.4,10.8,74,0.00, ,,-99.99,VWS V12.07,2013-07-15 12:37:00,
2013-07-15 08:42:00,81.0,72.6,30.30,East,101,6.5,11.4,76,0.00, ,,-99.99,VWS V12.07,2013-07-15 12:42:00,
2013-07-15 08:47:00,81.9,72.0,30.30,ESE,119,8.6,11.4,72,0.00, ,,-99.99,VWS V12.07,2013-07-15 12:47:00,
2013-07-15 08:53:00,81.4,70.6,30.30,East,90,10.2,11.4,70,0.00, ,,-99.99,VWS V12.07,2013-07-15 12:53:00,
2013-07-15 08:58:00,82.4,72.1,30.30,ESE,109,8.3,10.5,71,0.00, ,,-99.99,VWS V12.07,2013-07-15 12:58:00,
2013-07-15 09:03:00,81.9,71.7,30.30,SSE,150,6.1,10.7,71,0.00, ,,-99.99,VWS V12.07,2013-07-15 13:03:00,
2013-07-15 09:08:00,81.5,71.1,30.30,East,80,9.4,11.1,71,0.00, ,,-99.99,VWS V12.07,2013-07-15 13:08:00,
2013-07-15 09:13:00,81.8,71.7,30.30,East,87,8.7,11.1,72,0.00, ,,-99.99,VWS V12.07,2013-07-15 13:13:00,
2013-07-15 09:18:00,82.2,72.4,30.30,East,97,6.9,8.1,72,0.00, ,,-99.99,VWS V12.07,2013-07-15 13:18:00,
2013-07-15 09:23:00,82.5,71.5,30.30,SE,133,7.5,9.8,69,0.00, ,,-99.99,VWS V12.07,2013-07-15 13:23:00,
2013-07-15 09:28:00,82.3,70.2,30.30,ENE,71,8.3,10.0,67,0.00, ,,-99.99,VWS V12.07,2013-07-15 13:28:00,
2013-07-15 09:33:00,82.7,71.4,30.30,ESE,112,7.0,11.4,69,0.00, ,,-99.99,VWS V12.07,2013-07-15 13:33:00,
2013-07-15 09:38:00,82.9,70.6,30.30,ENE,66,5.5,8.9,66,0.00, ,,-99.99,VWS V12.07,2013-07-15 13:38:00,
2013-07-15 09:43:00,83.0,70.3,30.30,ESE,107,6.9,9.9,66,0.00, ,,-99.99,VWS V12.07,2013-07-15 13:43:00,
2013-07-15 09:48:00,83.4,70.9,30.30,East,87,5.8,9.9,66,0.00, ,,-99.99,VWS V12.07,2013-07-15 13:48:00,
2013-07-15 09:53:00,83.5,71.5,30.30,ENE,73,6.3,10.6,67,0.00, ,,-99.99,VWS V12.07,2013-07-15 13:53:00,
2013-07-15 09:58:00,83.3,71.2,30.30,SE,138,9.9,10.8,67,0.00, ,,-99.99,VWS V12.07,2013-07-15 13:58:00,
2013-07-15 10:03:00,82.5,70.3,30.30,ESE,102,7.2,11.9,67,0.00, ,,-99.99,VWS V12.07,2013-07-15 14:03:00,
2013-07-15 10:08:00,82.9,71.0,30.30,ENE,78,5.3,11.9,67,0.00, ,,-99.99,VWS V12.07,2013-07-15 14:08:00,
2013-07-15 10:13:00,83.3,71.4,30.30,East,88,9.4,11.9,68,0.00, ,,-99.99,VWS V12.07,2013-07-15 14:13:00,
2013-07-15 10:18:00,82.6,70.8,30.30,ENE,67,7.0,12.7,68,0.00, ,,-99.99,VWS V12.07,2013-07-15 14:18:00,
2013-07-15 10:23:00,81.7,70.5,30.30,ENE,73,9.8,13.8,69,0.00, ,,-99.99,VWS V12.07,2013-07-15 14:23:00,
2013-07-15 10:28:00,82.5,71.6,30.30,ENE,71,10.1,13.8,70,0.00, ,,-99.99,VWS V12.07,2013-07-15 14:28:00,
2013-07-15 10:33:00,81.9,70.4,30.30,ENE,76,9.1,13.8,68,0.00, ,,-99.99,VWS V12.07,2013-07-15 14:33:00,
2013-07-15 10:39:00,82.7,71.8,30.30,ESE,118,5.8,10.8,70,0.00, ,,-99.99,VWS V12.07,2013-07-15 14:39:00,
2013-07-15 10:44:00,82.9,71.3,30.31,ESE,118,7.5,11.8,68,0.00, ,,-99.99,VWS V12.07,2013-07-15 14:44:00,
2013-07-15 10:49:00,83.0,71.6,30.31,ESE,118,5.2,11.8,68,0.00, ,,-99.99,VWS V12.07,2013-07-15 14:49:00,
2013-07-15 10:55:00,83.3,71.8,30.31,ENE,62,6.0,6.8,68,0.00, ,,-99.99,VWS V12.07,2013-07-15 14:55:00,
2013-07-15 11:00:00,84.0,72.6,30.31,ENE,62,4.7,9.6,69,0.00, ,,-99.99,VWS V12.07,2013-07-15 15:00:00,
2013-07-15 11:05:00,83.5,71.8,30.31,ENE,74,5.8,11.9,68,0.00, ,,-99.99,VWS V12.07,2013-07-15 15:05:00,
2013-07-15 11:10:00,83.4,71.7,30.31,East,83,7.5,12.0,68,0.00, ,,-99.99,VWS V12.07,2013-07-15 15:10:00,
2013-07-15 11:15:00,83.4,71.6,30.31,East,81,6.8,7.0,68,0.00, ,,-99.99,VWS V12.07,2013-07-15 15:15:00,
2013-07-15 11:22:00,83.4,71.7,30.31,ESE,105,8.8,10.4,68,0.00, ,,-99.99,VWS V12.07,2013-07-15 15:22:00,
2013-07-15 11:27:00,84.0,72.6,30.31,ENE,69,5.0,10.4,69,0.00, ,,-99.99,VWS V12.07,2013-07-15 15:27:00,
2013-07-15 11:32:00,83.4,72.2,30.31,East,97,6.7,11.2,69,0.00, ,,-99.99,VWS V12.07,2013-07-15 15:32:00,
2013-07-15 11:37:00,83.4,72.2,30.30,East,100,10.2,10.3,69,0.00, ,,-99.99,VWS V12.07,2013-07-15 15:37:00,
2013-07-15 11:43:00,83.1,72.2,30.31,ENE,67,7.5,12.7,70,0.00, ,,-99.99,VWS V12.07,2013-07-15 15:43:00,
2013-07-15 11:49:00,83.6,72.3,30.31,ENE,66,7.8,12.7,69,0.00, ,,-99.99,VWS V12.07,2013-07-15 15:49:00,
2013-07-15 11:54:00,83.5,72.1,30.31,East,91,7.8,12.7,69,0.00, ,,-99.99,VWS V12.07,2013-07-15 15:54:00,
2013-07-15 11:59:00,84.5,72.5,30.31,East,94,7.8,11.2,67,0.00, ,,-99.99,VWS V12.07,2013-07-15 15:59:00,
2013-07-15 12:04:00,83.3,72.0,30.31,ESE,107,10.3,11.2,69,0.00, ,,-99.99,VWS V12.07,2013-07-15 16:04:00,
2013-07-15 12:10:00,83.3,73.5,30.31,ENE,77,9.4,13.5,72,0.00, ,,-99.99,VWS V12.07,2013-07-15 16:10:00,
2013-07-15 12:15:00,82.2,72.4,30.31,NE,55,10.6,11.2,72,0.00, ,,-99.99,VWS V12.07,2013-07-15 16:15:00,
2013-07-15 12:20:00,82.9,73.1,30.31,ESE,115,5.4,12.5,72,0.00, ,,-99.99,VWS V12.07,2013-07-15 16:20:00,
2013-07-15 12:26:00,82.9,72.4,30.31,East,85,11.0,15.1,71,0.00, ,,-99.99,VWS V12.07,2013-07-15 16:26:00,
2013-07-15 12:31:00,83.3,72.6,30.31,SE,133,14.0,15.5,70,0.00, ,,-99.99,VWS V12.07,2013-07-15 16:31:00,
2013-07-15 12:36:00,83.1,71.8,30.31,SE,136,10.0,11.1,69,0.00, ,,-99.99,VWS V12.07,2013-07-15 16:36:00,
2013-07-15 12:42:00,83.8,72.5,30.31,ESE,115,8.8,14.0,69,0.00, ,,-99.99,VWS V12.07,2013-07-15 16:42:00,
2013-07-15 12:47:00,84.4,73.1,30.31,SE,138,10.2,14.5,69,0.00, ,,-99.99,VWS V12.07,2013-07-15 16:47:00,
2013-07-15 12:52:00,83.9,73.0,30.30,SE,126,10.1,15.3,70,0.00, ,,-99.99,VWS V12.07,2013-07-15 16:52:00,
2013-07-15 12:57:00,84.2,73.5,30.30,ESE,116,5.3,13.0,70,0.00, ,,-99.99,VWS V12.07,2013-07-15 16:57:00,
2013-07-15 13:03:00,84.0,72.9,30.30,ESE,109,10.4,17.3,69,0.00, ,,-99.99,VWS V12.07,2013-07-15 17:03:00,
2013-07-15 13:08:00,83.4,72.5,30.30,SE,129,15.5,18.3,70,0.00, ,,-99.99,VWS V12.07,2013-07-15 17:08:00,
2013-07-15 13:13:00,83.8,73.4,30.30,SE,130,14.9,18.3,71,0.00, ,,-99.99,VWS V12.07,2013-07-15 17:13:00,
2013-07-15 13:18:00,82.6,73.1,30.30,ESE,114,11.7,18.0,73,0.00, ,,-99.99,VWS V12.07,2013-07-15 17:18:00,
2013-07-15 13:23:00,82.7,73.6,30.30,SE,138,11.2,18.0,74,0.00, ,,-99.99,VWS V12.07,2013-07-15 17:23:00,
2013-07-15 13:28:00,82.3,72.3,30.30,SSE,154,11.9,18.0,72,0.00, ,,-99.99,VWS V12.07,2013-07-15 17:28:00,
2013-07-15 13:35:00,82.9,72.8,30.30,SE,125,13.2,13.7,72,0.00, ,,-99.99,VWS V12.07,2013-07-15 17:35:00,
2013-07-15 13:40:00,82.6,72.8,30.29,SE,142,15.0,18.8,72,0.00, ,,-99.99,VWS V12.07,2013-07-15 17:40:00,
2013-07-15 13:45:00,82.3,72.0,30.29,SE,135,12.2,18.8,71,0.00, ,,-99.99,VWS V12.07,2013-07-15 17:45:00,
2013-07-15 13:50:00,83.4,72.1,30.30,SE,129,13.8,18.8,69,0.00, ,,-99.99,VWS V12.07,2013-07-15 17:50:00,
2013-07-15 13:55:00,83.4,72.0,30.29,SE,140,15.2,15.2,69,0.00, ,,-99.99,VWS V12.07,2013-07-15 17:55:00,
2013-07-15 14:00:00,83.5,72.3,30.29,ESE,116,16.5,18.4,69,0.00, ,,-99.99,VWS V12.07,2013-07-15 18:00:00,
2013-07-15 14:05:00,83.4,73.3,30.29,South,170,13.2,18.4,72,0.00, ,,-99.99,VWS V12.07,2013-07-15 18:05:00,
2013-07-15 14:10:00,82.8,73.2,30.29,SSE,150,14.7,18.5,73,0.00, ,,-99.99,VWS V12.07,2013-07-15 18:10:00,
2013-07-15 14:15:00,82.9,72.5,30.29,SSE,149,12.6,14.1,71,0.00, ,,-99.99,VWS V12.07,2013-07-15 18:15:00,
2013-07-15 14:20:00,83.4,73.4,30.29,SE,145,14.2,19.4,72,0.00, ,,-99.99,VWS V12.07,2013-07-15 18:20:00,
2013-07-15 14:25:00,83.3,73.3,30.29,SE,140,9.5,19.4,72,0.00, ,,-99.99,VWS V12.07,2013-07-15 18:25:00,
2013-07-15 14:30:00,83.2,72.2,30.29,SSE,147,12.6,19.4,70,0.00, ,,-99.99,VWS V12.07,2013-07-15 18:30:00,
2013-07-15 14:35:00,83.4,73.1,30.29,SE,145,14.3,14.3,71,0.00, ,,-99.99,VWS V12.07,2013-07-15 18:35:00,
2013-07-15 14:40:00,82.4,72.6,30.29,SSE,168,13.6,18.5,72,0.00, ,,-99.99,VWS V12.07,2013-07-15 18:40:00,
2013-07-15 14:45:00,83.2,72.8,30.29,SSE,150,13.5,18.5,71,0.00, ,,-99.99,VWS V12.07,2013-07-15 18:45:00,
2013-07-15 14:50:00,82.8,71.6,30.29,SE,136,15.8,18.5,69,0.00, ,,-99.99,VWS V12.07,2013-07-15 18:50:00,
2013-07-15 14:55:00,82.8,72.7,30.29,SSE,154,13.4,14.2,72,0.00, ,,-99.99,VWS V12.07,2013-07-15 18:55:00,
2013-07-15 15:00:00,83.1,72.3,30.29,SE,146,16.3,17.3,70,0.00, ,,-99.99,VWS V12.07,2013-07-15 19:00:00,
2013-07-15 15:05:00,83.3,72.4,30.29,SSE,152,13.2,17.8,70,0.00, ,,-99.99,VWS V12.07,2013-07-15 19:05:00,
2013-07-15 15:11:00,82.4,70.1,30.28,SE,146,13.2,17.8,66,0.00, ,,-99.99,VWS V12.07,2013-07-15 19:11:00,
2013-07-15 15:16:00,83.3,71.2,30.28,SSE,150,10.9,12.1,67,0.00, ,,-99.99,VWS V12.07,2013-07-15 19:16:00,
2013-07-15 15:21:00,83.4,71.5,30.28,South,181,10.3,18.5,67,0.00, ,,-99.99,VWS V12.07,2013-07-15 19:21:00,
2013-07-15 15:26:00,83.7,71.8,30.28,SE,129,13.9,18.5,68,0.00, ,,-99.99,VWS V12.07,2013-07-15 19:26:00,
2013-07-15 15:31:00,83.2,71.2,30.28,SE,145,11.4,18.5,67,0.00, ,,-99.99,VWS V12.07,2013-07-15 19:31:00,
2013-07-15 15:36:00,82.8,71.3,30.28,SE,142,14.1,16.8,68,0.00, ,,-99.99,VWS V12.07,2013-07-15 19:36:00,
2013-07-15 15:41:00,83.0,71.9,30.28,SSE,153,12.6,16.8,69,0.00, ,,-99.99,VWS V12.07,2013-07-15 19:41:00,
2013-07-15 15:46:00,82.7,72.3,30.28,SSE,159,13.0,17.3,71,0.00, ,,-99.99,VWS V12.07,2013-07-15 19:46:00,
2013-07-15 15:51:00,83.0,72.4,30.28,SSE,149,13.4,17.9,70,0.00, ,,-99.99,VWS V12.07,2013-07-15 19:51:00,
2013-07-15 15:56:00,82.6,72.2,30.28,SE,139,13.1,15.3,71,0.00, ,,-99.99,VWS V12.07,2013-07-15 19:56:00,
2013-07-15 16:01:00,82.1,72.4,30.28,SSE,168,12.1,17.0,72,0.00, ,,-99.99,VWS V12.07,2013-07-15 20:01:00,
2013-07-15 16:06:00,82.9,72.5,30.28,SE,130,13.0,17.0,71,0.00, ,,-99.99,VWS V12.07,2013-07-15 20:06:00,
2013-07-15 16:11:00,82.8,73.1,30.28,SSE,152,11.7,17.0,72,0.00, ,,-99.99,VWS V12.07,2013-07-15 20:11:00,
2013-07-15 16:16:00,82.5,72.4,30.28,SE,142,13.5,13.7,72,0.00, ,,-99.99,VWS V12.07,2013-07-15 20:16:00,
2013-07-15 16:21:00,82.5,73.2,30.28,SSE,150,10.9,14.9,74,0.00, ,,-99.99,VWS V12.07,2013-07-15 20:21:00,
2013-07-15 16:26:00,82.5,73.1,30.28,SSE,156,14.5,15.3,73,0.00, ,,-99.99,VWS V12.07,2013-07-15 20:26:00,
2013-07-15 16:32:00,82.7,73.1,30.27,SE,138,8.9,15.3,73,0.00, ,,-99.99,VWS V12.07,2013-07-15 20:32:00,
2013-07-15 16:37:00,82.8,73.3,30.27,SE,132,10.9,14.5,73,0.00, ,,-99.99,VWS V12.07,2013-07-15 20:37:00,
2013-07-15 16:42:00,82.4,72.6,30.27,SSE,147,11.1,14.9,72,0.00, ,,-99.99,VWS V12.07,2013-07-15 20:42:00,
2013-07-15 16:48:00,82.6,73.7,30.27,SE,138,12.0,14.9,75,0.00, ,,-99.99,VWS V12.07,2013-07-15 20:48:00,
2013-07-15 16:53:00,82.9,73.7,30.27,SE,143,10.9,14.9,74,0.00, ,,-99.99,VWS V12.07,2013-07-15 20:53:00,
2013-07-15 16:58:00,82.8,73.2,30.26,SSE,156,10.7,14.6,73,0.00, ,,-99.99,VWS V12.07,2013-07-15 20:58:00,
2013-07-15 17:03:00,83.2,73.5,30.26,SSE,149,11.8,14.6,73,0.00, ,,-99.99,VWS V12.07,2013-07-15 21:03:00,
2013-07-15 17:09:00,83.4,73.2,30.27,SE,128,10.6,14.6,71,0.00, ,,-99.99,VWS V12.07,2013-07-15 21:09:00,
2013-07-15 17:14:00,83.8,72.4,30.26,East,94,8.8,14.7,69,0.00, ,,-99.99,VWS V12.07,2013-07-15 21:14:00,
2013-07-15 17:19:00,84.1,69.8,30.26,East,91,11.1,13.1,62,0.00, ,,-99.99,VWS V12.07,2013-07-15 21:19:00,
2013-07-15 17:24:00,84.5,68.1,30.26,East,85,9.9,13.6,58,0.00, ,,-99.99,VWS V12.07,2013-07-15 21:24:00,
2013-07-15 17:30:00,84.3,69.8,30.26,ESE,115,10.3,13.6,62,0.00, ,,-99.99,VWS V12.07,2013-07-15 21:30:00,
2013-07-15 17:36:00,84.0,70.2,30.26,ESE,115,7.7,10.7,63,0.00, ,,-99.99,VWS V12.07,2013-07-15 21:36:00,
2013-07-15 17:41:00,84.1,68.7,30.26,East,87,12.1,13.0,60,0.00, ,,-99.99,VWS V12.07,2013-07-15 21:41:00,
2013-07-15 17:46:00,83.9,70.4,30.26,East,92,10.3,13.0,64,0.00, ,,-99.99,VWS V12.07,2013-07-15 21:46:00,
2013-07-15 17:51:00,84.4,74.7,30.26,SE,140,14.0,16.7,73,0.00, ,,-99.99,VWS V12.07,2013-07-15 21:51:00,
2013-07-15 17:56:00,83.4,75.0,30.26,SE,143,12.3,15.3,76,0.00, ,,-99.99,VWS V12.07,2013-07-15 21:56:00,
2013-07-15 18:01:00,83.0,75.0,30.26,SE,142,11.2,16.5,77,0.00, ,,-99.99,VWS V12.07,2013-07-15 22:01:00,
2013-07-15 18:06:00,82.6,74.7,30.26,SSE,149,11.4,17.8,77,0.00, ,,-99.99,VWS V12.07,2013-07-15 22:06:00,
2013-07-15 18:11:00,82.5,74.3,30.26,SE,146,12.6,17.8,76,0.00, ,,-99.99,VWS V12.07,2013-07-15 22:11:00,
2013-07-15 18:17:00,82.4,74.4,30.26,ESE,116,11.1,13.2,77,0.00, ,,-99.99,VWS V12.07,2013-07-15 22:17:00,
2013-07-15 18:22:00,82.7,74.5,30.26,SSE,152,13.4,15.7,76,0.00, ,,-99.99,VWS V12.07,2013-07-15 22:22:00,
2013-07-15 18:27:00,82.5,74.2,30.26,SSE,149,9.5,16.2,76,0.00, ,,-99.99,VWS V12.07,2013-07-15 22:27:00,
2013-07-15 18:32:00,82.4,74.1,30.26,SE,128,12.0,16.2,76,0.00, ,,-99.99,VWS V12.07,2013-07-15 22:32:00,
2013-07-15 18:37:00,82.9,74.4,30.26,SSE,150,9.3,13.1,76,0.00, ,,-99.99,VWS V12.07,2013-07-15 22:37:00,
2013-07-15 18:42:00,82.7,73.5,30.26,ESE,122,11.9,13.1,74,0.00, ,,-99.99,VWS V12.07,2013-07-15 22:42:00,
2013-07-15 18:47:00,82.7,74.0,30.26,SE,136,8.0,13.1,75,0.00, ,,-99.99,VWS V12.07,2013-07-15 22:47:00,
2013-07-15 18:52:00,82.0,73.3,30.26,ESE,122,11.8,13.5,75,0.00, ,,-99.99,VWS V12.07,2013-07-15 22:52:00,
2013-07-15 18:59:00,81.9,73.2,30.26,SSE,152,11.2,13.5,75,0.00, ,,-99.99,VWS V12.07,2013-07-15 22:59:00,
2013-07-15 19:04:00,82.2,72.8,30.26,SSE,152,7.8,13.5,73,0.00, ,,-99.99,VWS V12.07,2013-07-15 23:04:00,
2013-07-15 19:09:00,81.9,71.9,30.26,SSE,152,7.5,13.5,72,0.00, ,,-99.99,VWS V12.07,2013-07-15 23:09:00,
2013-07-15 19:14:00,82.6,72.9,30.26,SSE,150,10.9,13.5,73,0.00, ,,-99.99,VWS V12.07,2013-07-15 23:14:00,
2013-07-15 19:20:00,82.2,72.8,30.26,SE,145,8.3,10.9,73,0.00, ,,-99.99,VWS V12.07,2013-07-15 23:20:00,
2013-07-15 19:26:00,81.9,72.7,30.26,ESE,116,7.2,10.9,74,0.00, ,,-99.99,VWS V12.07,2013-07-15 23:26:00,
2013-07-15 19:32:00,82.4,73.3,30.26,SSE,152,6.0,11.0,74,0.00, ,,-99.99,VWS V12.07,2013-07-15 23:32:00,
2013-07-15 19:37:00,81.9,73.0,30.26,SE,130,8.9,10.5,74,0.00, ,,-99.99,VWS V12.07,2013-07-15 23:37:00,
2013-07-15 19:42:00,82.0,73.4,30.26,SSE,150,7.0,10.5,75,0.00, ,,-99.99,VWS V12.07,2013-07-15 23:42:00,
2013-07-15 19:47:00,82.2,73.8,30.26,ESE,121,6.0,10.5,76,0.00, ,,-99.99,VWS V12.07,2013-07-15 23:47:00,
2013-07-15 19:52:00,81.7,73.2,30.26,SE,146,6.5,10.5,76,0.00, ,,-99.99,VWS V12.07,2013-07-15 23:52:00,
2013-07-15 19:57:00,82.1,73.7,30.26,SE,143,6.3,8.5,76,0.00, ,,-99.99,VWS V12.07,2013-07-15 23:57:00,
2013-07-15 20:02:00,81.9,73.9,30.26,SE,143,7.6,8.6,77,0.00, ,,-99.99,VWS V12.07,2013-07-16 00:02:00,
2013-07-15 20:08:00,81.9,74.0,30.26,SE,145,6.5,8.7,77,0.00, ,,-99.99,VWS V12.07,2013-07-16 00:08:00,
2013-07-15 20:13:00,81.6,73.8,30.26,SE,129,6.3,8.7,77,0.00, ,,-99.99,VWS V12.07,2013-07-16 00:13:00,
2013-07-15 20:18:00,81.6,74.0,30.26,SE,126,6.0,7.3,78,0.00, ,,-99.99,VWS V12.07,2013-07-16 00:18:00,
2013-07-15 20:23:00,81.4,74.0,30.26,ESE,114,5.6,7.3,78,0.00, ,,-99.99,VWS V12.07,2013-07-16 00:23:00,
2013-07-15 20:29:00,81.4,74.4,30.26,ESE,112,6.6,7.3,79,0.00, ,,-99.99,VWS V12.07,2013-07-16 00:29:00,
2013-07-15 20:34:00,81.4,74.5,30.26,SSE,154,4.5,7.6,80,0.00, ,,-99.99,VWS V12.07,2013-07-16 00:34:00,
2013-07-15 20:39:00,81.5,74.8,30.26,SSW,208,5.4,7.1,80,0.00, ,,-99.99,VWS V12.07,2013-07-16 00:39:00,
2013-07-15 20:45:00,80.7,74.2,30.26,SSE,159,3.5,7.8,81,0.00, ,,-99.99,VWS V12.07,2013-07-16 00:45:00,
2013-07-15 20:50:00,80.9,74.7,30.26,South,178,4.3,7.8,81,0.00, ,,-99.99,VWS V12.07,2013-07-16 00:50:00,
2013-07-15 20:57:00,80.7,74.7,30.26,SW,216,5.2,8.0,82,0.00, ,,-99.99,VWS V12.07,2013-07-16 00:57:00,
2013-07-15 21:04:00,80.5,74.4,30.26,South,173,3.5,8.0,82,0.00, ,,-99.99,VWS V12.07,2013-07-16 01:04:00,
2013-07-15 21:09:00,80.5,74.5,30.26,South,181,3.0,8.0,82,0.00, ,,-99.99,VWS V12.07,2013-07-16 01:09:00,
2013-07-15 21:14:00,80.6,74.3,30.26,SSW,198,3.2,8.0,81,0.00, ,,-99.99,VWS V12.07,2013-07-16 01:14:00,
2013-07-15 21:19:00,80.9,74.5,30.26,SE,133,0.0,6.6,81,0.00, ,,-99.99,VWS V12.07,2013-07-16 01:19:00,
2013-07-15 21:24:00,81.0,74.7,30.26,SSW,195,5.5,6.6,81,0.00, ,,-99.99,VWS V12.07,2013-07-16 01:24:00,
2013-07-15 21:29:00,80.9,74.7,30.27,South,188,4.3,8.0,81,0.00, ,,-99.99,VWS V12.07,2013-07-16 01:29:00,
2013-07-15 21:35:00,80.6,74.4,30.27,SW,216,0.0,3.4,82,0.00, ,,-99.99,VWS V12.07,2013-07-16 01:35:00,
2013-07-15 21:41:00,80.8,74.9,30.27,SSE,168,4.3,7.0,82,0.00, ,,-99.99,VWS V12.07,2013-07-16 01:41:00,
2013-07-15 21:46:00,80.7,74.9,30.27,SW,218,5.9,7.4,83,0.00, ,,-99.99,VWS V12.07,2013-07-16 01:46:00,
2013-07-15 21:51:00,80.5,74.8,30.27,ESE,123,0.0,7.4,83,0.00, ,,-99.99,VWS V12.07,2013-07-16 01:51:00,
2013-07-15 21:56:00,80.7,75.0,30.27,SSE,160,3.1,5.7,83,0.00, ,,-99.99,VWS V12.07,2013-07-16 01:56:00,
2013-07-15 22:02:00,80.5,75.0,30.27,SSW,192,4.1,7.1,83,0.00, ,,-99.99,VWS V12.07,2013-07-16 02:02:00,
2013-07-15 22:07:00,80.5,75.1,30.27,South,190,6.2,7.6,84,0.00, ,,-99.99,VWS V12.07,2013-07-16 02:07:00,
2013-07-15 22:12:00,80.2,74.9,30.27,SSE,160,5.3,8.8,84,0.00, ,,-99.99,VWS V12.07,2013-07-16 02:12:00,
2013-07-15 22:17:00,80.5,75.2,30.27,South,171,6.1,6.1,84,0.00, ,,-99.99,VWS V12.07,2013-07-16 02:17:00,
2013-07-15 22:22:00,80.5,75.1,30.28,SSE,150,0.0,7.3,84,0.00, ,,-99.99,VWS V12.07,2013-07-16 02:22:00,
2013-07-15 22:27:00,80.7,75.4,30.28,ESE,116,0.0,8.0,84,0.00, ,,-99.99,VWS V12.07,2013-07-16 02:27:00,
2013-07-15 22:32:00,80.4,75.3,30.28,South,171,0.0,8.0,84,0.00, ,,-99.99,VWS V12.07,2013-07-16 02:32:00,
2013-07-15 22:38:00,80.3,75.2,30.28,SSW,198,3.3,6.8,84,0.00, ,,-99.99,VWS V12.07,2013-07-16 02:38:00,
2013-07-15 22:45:00,80.2,75.1,30.28,South,174,5.8,8.3,84,0.00, ,,-99.99,VWS V12.07,2013-07-16 02:45:00,
2013-07-15 22:50:00,80.2,75.2,30.28,South,182,6.8,8.3,85,0.00, ,,-99.99,VWS V12.07,2013-07-16 02:50:00,
2013-07-15 22:56:00,80.5,75.6,30.28,South,173,6.3,7.5,85,0.00, ,,-99.99,VWS V12.07,2013-07-16 02:56:00,
2013-07-15 23:01:00,80.0,75.2,30.28,SSE,157,0.0,7.5,85,0.00, ,,-99.99,VWS V12.07,2013-07-16 03:01:00,
2013-07-15 23:08:00,80.3,75.4,30.28,SSE,150,0.0,7.5,85,0.00, ,,-99.99,VWS V12.07,2013-07-16 03:08:00,
2013-07-15 23:13:00,80.1,75.2,30.28,SW,215,0.0,7.5,85,0.00, ,,-99.99,VWS V12.07,2013-07-16 03:13:00,
2013-07-15 23:18:00,80.0,75.1,30.28,SSW,192,0.0,6.2,85,0.00, ,,-99.99,VWS V12.07,2013-07-16 03:18:00,
2013-07-15 23:23:00,80.0,75.2,30.28,South,190,0.0,7.2,85,0.00, ,,-99.99,VWS V12.07,2013-07-16 03:23:00,
2013-07-15 23:28:00,80.0,75.2,30.28,South,190,0.0,7.2,85,0.00, ,,-99.99,VWS V12.07,2013-07-16 03:28:00,
2013-07-15 23:33:00,80.2,75.4,30.28,SSW,211,5.2,7.2,85,0.00, ,,-99.99,VWS V12.07,2013-07-16 03:33:00,
2013-07-15 23:39:00,79.4,74.8,30.28,SSW,195,5.0,7.8,86,0.00, ,,-99.99,VWS V12.07,2013-07-16 03:39:00,
2013-07-15 23:45:00,79.8,75.0,30.27,ESE,123,3.0,7.8,85,0.00, ,,-99.99,VWS V12.07,2013-07-16 03:45:00,
2013-07-15 23:50:00,79.8,75.0,30.27,SSE,161,0.0,7.8,85,0.00, ,,-99.99,VWS V12.07,2013-07-16 03:50:00,
2013-07-15 23:55:00,79.7,74.8,30.27,South,173,0.0,0.0,85,0.00, ,,-99.99,VWS V12.07,2013-07-16 03:55:00,